sensor_id;sensor_type;location;lat;lon;timestamp;P1;durP1;ratioP1;P2;durP2;ratioP2
48191;SDS011;33982;47.430;18.912;2022-09-01T00:00:25;6.78;;;3.30;;
48191;SDS011;33982;47.430;18.912;2022-09-01T00:02:55;6.05;;;3.30;;
48191;SDS011;33982;47.430;18.912;2022-09-01T00:05:23;8.15;;;3.92;;
48191;SDS011;33982;47.430;18.912;2022-09-01T00:07:50;6.55;;;3.58;;
48191;SDS011;33982;47.430;18.912;2022-09-01T00:10:23;6.43;;;3.62;;
48191;SDS011;33982;47.430;18.912;2022-09-01T00:12:51;5.45;;;3.62;;
48191;SDS011;33982;47.430;18.912;2022-09-01T00:15:19;6.68;;;3.85;;
48191;SDS011;33982;47.430;18.912;2022-09-01T00:17:47;7.22;;;4.22;;
48191;SDS011;33982;47.430;18.912;2022-09-01T00:20:14;8.05;;;4.47;;
48191;SDS011;33982;47.430;18.912;2022-09-01T00:22:47;7.30;;;4.47;;
48191;SDS011;33982;47.430;18.912;2022-09-01T00:25:15;8.48;;;4.60;;
48191;SDS011;33982;47.430;18.912;2022-09-01T00:27:45;8.57;;;4.60;;
48191;SDS011;33982;47.430;18.912;2022-09-01T00:30:16;6.10;;;4.10;;
48191;SDS011;33982;47.430;18.912;2022-09-01T00:32:45;7.82;;;4.10;;
48191;SDS011;33982;47.430;18.912;2022-09-01T00:35:16;8.17;;;4.37;;
48191;SDS011;33982;47.430;18.912;2022-09-01T00:37:44;7.43;;;4.50;;
48191;SDS011;33982;47.430;18.912;2022-09-01T00:40:15;8.88;;;4.78;;
48191;SDS011;33982;47.430;18.912;2022-09-01T00:42:44;8.70;;;4.60;;
48191;SDS011;33982;47.430;18.912;2022-09-01T00:45:11;7.97;;;4.40;;
48191;SDS011;33982;47.430;18.912;2022-09-01T00:47:39;7.30;;;4.40;;
48191;SDS011;33982;47.430;18.912;2022-09-01T00:50:10;9.13;;;4.12;;
48191;SDS011;33982;47.430;18.912;2022-09-01T00:52:42;6.60;;;4.10;;
48191;SDS011;33982;47.430;18.912;2022-09-01T00:55:25;7.12;;;4.22;;
48191;SDS011;33982;47.430;18.912;2022-09-01T00:57:55;7.00;;;4.05;;
48191;SDS011;33982;47.430;18.912;2022-09-01T01:00:27;8.43;;;4.20;;
48191;SDS011;33982;47.430;18.912;2022-09-01T01:02:56;7.18;;;3.75;;
48191;SDS011;33982;47.430;18.912;2022-09-01T01:05:26;6.50;;;4.20;;
48191;SDS011;33982;47.430;18.912;2022-09-01T01:08:00;9.70;;;4.18;;
48191;SDS011;33982;47.430;18.912;2022-09-01T01:10:29;6.72;;;4.07;;
48191;SDS011;33982;47.430;18.912;2022-09-01T01:12:58;6.22;;;3.75;;
48191;SDS011;33982;47.430;18.912;2022-09-01T01:15:31;6.40;;;3.70;;
48191;SDS011;33982;47.430;18.912;2022-09-01T01:18:01;7.27;;;3.60;;
48191;SDS011;33982;47.430;18.912;2022-09-01T01:20:30;10.07;;;3.92;;
48191;SDS011;33982;47.430;18.912;2022-09-01T01:26:24;8.77;;;4.18;;
48191;SDS011;33982;47.430;18.912;2022-09-01T01:28:55;7.57;;;3.72;;
48191;SDS011;33982;47.430;18.912;2022-09-01T01:31:22;7.25;;;3.70;;
48191;SDS011;33982;47.430;18.912;2022-09-01T01:33:52;7.50;;;3.53;;
48191;SDS011;33982;47.430;18.912;2022-09-01T01:36:23;7.35;;;3.60;;
48191;SDS011;33982;47.430;18.912;2022-09-01T01:41:43;6.37;;;3.03;;
48191;SDS011;33982;47.430;18.912;2022-09-01T01:44:16;6.28;;;3.17;;
48191;SDS011;33982;47.430;18.912;2022-09-01T01:46:48;6.05;;;3.35;;
48191;SDS011;33982;47.430;18.912;2022-09-01T01:49:20;5.78;;;3.33;;
48191;SDS011;33982;47.430;18.912;2022-09-01T01:51:52;6.12;;;3.10;;
48191;SDS011;33982;47.430;18.912;2022-09-01T01:54:24;8.35;;;3.58;;
48191;SDS011;33982;47.430;18.912;2022-09-01T01:56:58;5.10;;;3.05;;
48191;SDS011;33982;47.430;18.912;2022-09-01T01:59:26;5.57;;;3.12;;
48191;SDS011;33982;47.430;18.912;2022-09-01T02:01:55;5.68;;;3.30;;
48191;SDS011;33982;47.430;18.912;2022-09-01T02:04:25;6.07;;;2.95;;
48191;SDS011;33982;47.430;18.912;2022-09-01T02:07:03;5.97;;;3.00;;
48191;SDS011;33982;47.430;18.912;2022-09-01T02:09:32;6.47;;;3.50;;
48191;SDS011;33982;47.430;18.912;2022-09-01T02:12:01;6.72;;;3.17;;
48191;SDS011;33982;47.430;18.912;2022-09-01T02:14:36;6.32;;;3.50;;
48191;SDS011;33982;47.430;18.912;2022-09-01T02:17:04;5.70;;;3.25;;
48191;SDS011;33982;47.430;18.912;2022-09-01T02:19:33;6.05;;;3.30;;
48191;SDS011;33982;47.430;18.912;2022-09-01T02:22:11;5.72;;;3.10;;
48191;SDS011;33982;47.430;18.912;2022-09-01T02:24:38;7.00;;;3.20;;
48191;SDS011;33982;47.430;18.912;2022-09-01T02:27:12;6.32;;;3.30;;
48191;SDS011;33982;47.430;18.912;2022-09-01T02:29:44;6.10;;;3.37;;
48191;SDS011;33982;47.430;18.912;2022-09-01T02:32:13;5.68;;;3.20;;
48191;SDS011;33982;47.430;18.912;2022-09-01T02:34:48;6.40;;;3.17;;
48191;SDS011;33982;47.430;18.912;2022-09-01T02:37:20;6.10;;;3.30;;
48191;SDS011;33982;47.430;18.912;2022-09-01T02:39:51;5.80;;;3.20;;
48191;SDS011;33982;47.430;18.912;2022-09-01T02:42:30;8.25;;;3.22;;
48191;SDS011;33982;47.430;18.912;2022-09-01T02:44:59;9.35;;;2.92;;
48191;SDS011;33982;47.430;18.912;2022-09-01T02:47:30;6.35;;;3.03;;
48191;SDS011;33982;47.430;18.912;2022-09-01T02:49:57;5.80;;;2.60;;
48191;SDS011;33982;47.430;18.912;2022-09-01T02:52:29;5.53;;;2.62;;
48191;SDS011;33982;47.430;18.912;2022-09-01T02:55:03;5.75;;;3.03;;
48191;SDS011;33982;47.430;18.912;2022-09-01T02:57:34;6.40;;;3.30;;
48191;SDS011;33982;47.430;18.912;2022-09-01T03:00:04;6.03;;;3.33;;
48191;SDS011;33982;47.430;18.912;2022-09-01T03:02:50;6.05;;;3.40;;
48191;SDS011;33982;47.430;18.912;2022-09-01T03:05:19;7.35;;;3.50;;
48191;SDS011;33982;47.430;18.912;2022-09-01T03:07:53;7.27;;;3.50;;
48191;SDS011;33982;47.430;18.912;2022-09-01T03:10:28;5.12;;;3.03;;
48191;SDS011;33982;47.430;18.912;2022-09-01T03:13:11;6.00;;;3.10;;
48191;SDS011;33982;47.430;18.912;2022-09-01T03:15:43;7.00;;;3.28;;
48191;SDS011;33982;47.430;18.912;2022-09-01T03:18:11;5.50;;;3.40;;
48191;SDS011;33982;47.430;18.912;2022-09-01T03:20:41;7.80;;;3.15;;
48191;SDS011;33982;47.430;18.912;2022-09-01T03:23:13;5.37;;;3.12;;
48191;SDS011;33982;47.430;18.912;2022-09-01T03:25:46;4.78;;;3.00;;
48191;SDS011;33982;47.430;18.912;2022-09-01T03:28:17;5.50;;;3.17;;
48191;SDS011;33982;47.430;18.912;2022-09-01T03:30:48;6.25;;;2.60;;
48191;SDS011;33982;47.430;18.912;2022-09-01T03:33:18;7.35;;;2.72;;
48191;SDS011;33982;47.430;18.912;2022-09-01T03:35:47;4.90;;;2.80;;
48191;SDS011;33982;47.430;18.912;2022-09-01T03:38:16;9.90;;;2.70;;
48191;SDS011;33982;47.430;18.912;2022-09-01T03:40:50;6.72;;;2.92;;
48191;SDS011;33982;47.430;18.912;2022-09-01T03:43:19;6.10;;;3.05;;
48191;SDS011;33982;47.430;18.912;2022-09-01T03:45:51;6.60;;;2.70;;
48191;SDS011;33982;47.430;18.912;2022-09-01T03:48:21;6.67;;;2.87;;
48191;SDS011;33982;47.430;18.912;2022-09-01T03:50:56;6.07;;;2.92;;
48191;SDS011;33982;47.430;18.912;2022-09-01T03:53:32;4.82;;;2.67;;
48191;SDS011;33982;47.430;18.912;2022-09-01T03:56:04;5.55;;;2.83;;
48191;SDS011;33982;47.430;18.912;2022-09-01T03:58:33;5.70;;;2.60;;
48191;SDS011;33982;47.430;18.912;2022-09-01T04:01:08;5.22;;;2.92;;
48191;SDS011;33982;47.430;18.912;2022-09-01T04:03:40;6.70;;;2.92;;
48191;SDS011;33982;47.430;18.912;2022-09-01T04:06:10;5.17;;;2.60;;
48191;SDS011;33982;47.430;18.912;2022-09-01T04:08:38;5.30;;;2.75;;
48191;SDS011;33982;47.430;18.912;2022-09-01T04:11:11;6.18;;;3.10;;
48191;SDS011;33982;47.430;18.912;2022-09-01T04:13:43;8.85;;;3.25;;
48191;SDS011;33982;47.430;18.912;2022-09-01T04:19:07;7.05;;;3.28;;
48191;SDS011;33982;47.430;18.912;2022-09-01T04:21:48;7.18;;;3.37;;
48191;SDS011;33982;47.430;18.912;2022-09-01T04:24:17;6.72;;;3.53;;
48191;SDS011;33982;47.430;18.912;2022-09-01T04:26:46;9.65;;;3.65;;
48191;SDS011;33982;47.430;18.912;2022-09-01T04:29:16;7.07;;;3.57;;
48191;SDS011;33982;47.430;18.912;2022-09-01T04:31:45;6.45;;;3.33;;
48191;SDS011;33982;47.430;18.912;2022-09-01T04:34:20;6.43;;;3.53;;
48191;SDS011;33982;47.430;18.912;2022-09-01T04:36:51;7.03;;;3.50;;
48191;SDS011;33982;47.430;18.912;2022-09-01T04:39:23;7.15;;;3.42;;
48191;SDS011;33982;47.430;18.912;2022-09-01T04:41:51;5.43;;;3.30;;
48191;SDS011;33982;47.430;18.912;2022-09-01T04:44:20;7.17;;;3.50;;
48191;SDS011;33982;47.430;18.912;2022-09-01T04:46:55;8.25;;;3.80;;
48191;SDS011;33982;47.430;18.912;2022-09-01T04:49:23;6.87;;;3.22;;
48191;SDS011;33982;47.430;18.912;2022-09-01T04:51:53;6.87;;;3.40;;
48191;SDS011;33982;47.430;18.912;2022-09-01T04:54:21;7.50;;;3.60;;
48191;SDS011;33982;47.430;18.912;2022-09-01T04:56:49;6.60;;;3.50;;
48191;SDS011;33982;47.430;18.912;2022-09-01T04:59:19;6.87;;;3.90;;
48191;SDS011;33982;47.430;18.912;2022-09-01T05:01:50;6.45;;;3.20;;
48191;SDS011;33982;47.430;18.912;2022-09-01T05:04:22;6.97;;;3.55;;
48191;SDS011;33982;47.430;18.912;2022-09-01T05:06:55;5.57;;;3.42;;
48191;SDS011;33982;47.430;18.912;2022-09-01T05:09:31;8.27;;;4.10;;
48191;SDS011;33982;47.430;18.912;2022-09-01T05:12:04;7.17;;;3.70;;
48191;SDS011;33982;47.430;18.912;2022-09-01T05:14:43;6.70;;;3.58;;
48191;SDS011;33982;47.430;18.912;2022-09-01T05:17:14;5.90;;;3.37;;
48191;SDS011;33982;47.430;18.912;2022-09-01T05:19:45;6.57;;;3.30;;
48191;SDS011;33982;47.430;18.912;2022-09-01T05:22:19;7.12;;;3.83;;
48191;SDS011;33982;47.430;18.912;2022-09-01T05:24:50;6.87;;;3.22;;
48191;SDS011;33982;47.430;18.912;2022-09-01T05:27:22;8.40;;;3.97;;
48191;SDS011;33982;47.430;18.912;2022-09-01T05:29:49;8.70;;;3.40;;
48191;SDS011;33982;47.430;18.912;2022-09-01T05:32:17;6.85;;;3.65;;
48191;SDS011;33982;47.430;18.912;2022-09-01T05:34:45;6.60;;;3.20;;
48191;SDS011;33982;47.430;18.912;2022-09-01T05:37:13;6.35;;;3.30;;
48191;SDS011;33982;47.430;18.912;2022-09-01T05:39:42;8.55;;;3.83;;
48191;SDS011;33982;47.430;18.912;2022-09-01T05:42:10;7.87;;;3.97;;
48191;SDS011;33982;47.430;18.912;2022-09-01T05:44:38;6.28;;;3.45;;
48191;SDS011;33982;47.430;18.912;2022-09-01T05:47:11;8.13;;;4.10;;
48191;SDS011;33982;47.430;18.912;2022-09-01T05:49:48;7.05;;;3.70;;
48191;SDS011;33982;47.430;18.912;2022-09-01T05:52:16;7.68;;;3.50;;
48191;SDS011;33982;47.430;18.912;2022-09-01T05:54:52;8.27;;;3.60;;
48191;SDS011;33982;47.430;18.912;2022-09-01T05:57:28;7.90;;;3.62;;
48191;SDS011;33982;47.430;18.912;2022-09-01T06:00:04;8.33;;;3.80;;
48191;SDS011;33982;47.430;18.912;2022-09-01T06:02:39;5.97;;;3.42;;
48191;SDS011;33982;47.430;18.912;2022-09-01T06:05:11;6.60;;;3.50;;
48191;SDS011;33982;47.430;18.912;2022-09-01T06:07:42;7.50;;;3.50;;
48191;SDS011;33982;47.430;18.912;2022-09-01T06:10:11;8.68;;;3.78;;
48191;SDS011;33982;47.430;18.912;2022-09-01T06:12:41;7.13;;;3.90;;
48191;SDS011;33982;47.430;18.912;2022-09-01T06:15:09;5.53;;;3.12;;
48191;SDS011;33982;47.430;18.912;2022-09-01T06:17:43;6.90;;;3.40;;
48191;SDS011;33982;47.430;18.912;2022-09-01T06:20:12;7.62;;;3.70;;
48191;SDS011;33982;47.430;18.912;2022-09-01T06:22:40;7.95;;;3.40;;
48191;SDS011;33982;47.430;18.912;2022-09-01T06:25:08;6.22;;;3.20;;
48191;SDS011;33982;47.430;18.912;2022-09-01T06:27:40;6.73;;;3.20;;
48191;SDS011;33982;47.430;18.912;2022-09-01T06:30:10;7.68;;;3.80;;
48191;SDS011;33982;47.430;18.912;2022-09-01T06:32:53;6.72;;;3.50;;
48191;SDS011;33982;47.430;18.912;2022-09-01T06:35:22;6.47;;;3.30;;
48191;SDS011;33982;47.430;18.912;2022-09-01T06:37:56;6.30;;;3.20;;
48191;SDS011;33982;47.430;18.912;2022-09-01T06:40:29;4.80;;;2.80;;
48191;SDS011;33982;47.430;18.912;2022-09-01T06:42:58;7.40;;;3.37;;
48191;SDS011;33982;47.430;18.912;2022-09-01T06:45:29;6.07;;;3.05;;
48191;SDS011;33982;47.430;18.912;2022-09-01T06:48:00;5.40;;;3.35;;
48191;SDS011;33982;47.430;18.912;2022-09-01T06:50:28;6.50;;;3.20;;
48191;SDS011;33982;47.430;18.912;2022-09-01T06:53:17;6.20;;;2.85;;
48191;SDS011;33982;47.430;18.912;2022-09-01T06:56:01;6.35;;;2.92;;
48191;SDS011;33982;47.430;18.912;2022-09-01T06:58:30;7.03;;;3.05;;
48191;SDS011;33982;47.430;18.912;2022-09-01T07:00:58;7.25;;;4.68;;
48191;SDS011;33982;47.430;18.912;2022-09-01T07:03:26;6.40;;;4.60;;
48191;SDS011;33982;47.430;18.912;2022-09-01T07:05:55;5.35;;;2.60;;
48191;SDS011;33982;47.430;18.912;2022-09-01T07:08:35;5.82;;;2.90;;
48191;SDS011;33982;47.430;18.912;2022-09-01T07:11:29;6.20;;;3.00;;
48191;SDS011;33982;47.430;18.912;2022-09-01T07:14:19;5.07;;;2.78;;
48191;SDS011;33982;47.430;18.912;2022-09-01T07:16:47;4.85;;;2.60;;
48191;SDS011;33982;47.430;18.912;2022-09-01T07:19:38;4.90;;;2.80;;
48191;SDS011;33982;47.430;18.912;2022-09-01T07:22:22;5.20;;;2.60;;
48191;SDS011;33982;47.430;18.912;2022-09-01T07:25:10;5.80;;;2.80;;
48191;SDS011;33982;47.430;18.912;2022-09-01T07:27:41;5.03;;;2.67;;
48191;SDS011;33982;47.430;18.912;2022-09-01T07:30:18;4.30;;;2.42;;
48191;SDS011;33982;47.430;18.912;2022-09-01T07:32:51;5.00;;;2.60;;
48191;SDS011;33982;47.430;18.912;2022-09-01T07:35:20;5.82;;;2.55;;
48191;SDS011;33982;47.430;18.912;2022-09-01T07:37:48;4.93;;;2.80;;
48191;SDS011;33982;47.430;18.912;2022-09-01T07:40:37;6.43;;;3.10;;
48191;SDS011;33982;47.430;18.912;2022-09-01T07:43:26;6.40;;;2.70;;
48191;SDS011;33982;47.430;18.912;2022-09-01T07:46:03;6.78;;;2.80;;
48191;SDS011;33982;47.430;18.912;2022-09-01T07:48:52;4.50;;;2.60;;
48191;SDS011;33982;47.430;18.912;2022-09-01T07:51:41;6.55;;;2.60;;
48191;SDS011;33982;47.430;18.912;2022-09-01T07:54:10;5.00;;;2.80;;
48191;SDS011;33982;47.430;18.912;2022-09-01T07:56:43;4.55;;;2.30;;
48191;SDS011;33982;47.430;18.912;2022-09-01T07:59:11;6.90;;;2.50;;
48191;SDS011;33982;47.430;18.912;2022-09-01T08:01:44;4.45;;;2.20;;
48191;SDS011;33982;47.430;18.912;2022-09-01T08:04:14;5.20;;;2.25;;
48191;SDS011;33982;47.430;18.912;2022-09-01T08:06:42;4.43;;;2.37;;
48191;SDS011;33982;47.430;18.912;2022-09-01T08:09:11;4.82;;;2.10;;
48191;SDS011;33982;47.430;18.912;2022-09-01T08:12:00;3.72;;;2.17;;
48191;SDS011;33982;47.430;18.912;2022-09-01T08:14:29;5.43;;;2.73;;
48191;SDS011;33982;47.430;18.912;2022-09-01T08:17:01;4.57;;;2.55;;
48191;SDS011;33982;47.430;18.912;2022-09-01T08:19:52;5.43;;;2.50;;
48191;SDS011;33982;47.430;18.912;2022-09-01T08:22:20;5.22;;;2.50;;
48191;SDS011;33982;47.430;18.912;2022-09-01T08:24:53;4.93;;;2.70;;
48191;SDS011;33982;47.430;18.912;2022-09-01T08:27:21;6.43;;;2.12;;
48191;SDS011;33982;47.430;18.912;2022-09-01T08:29:49;4.63;;;2.10;;
48191;SDS011;33982;47.430;18.912;2022-09-01T08:32:16;4.32;;;2.20;;
48191;SDS011;33982;47.430;18.912;2022-09-01T08:34:44;4.95;;;2.30;;
48191;SDS011;33982;47.430;18.912;2022-09-01T08:37:12;4.87;;;2.05;;
48191;SDS011;33982;47.430;18.912;2022-09-01T08:39:40;4.53;;;2.30;;
48191;SDS011;33982;47.430;18.912;2022-09-01T08:47:56;4.80;;;2.08;;
48191;SDS011;33982;47.430;18.912;2022-09-01T08:50:50;4.97;;;2.20;;
48191;SDS011;33982;47.430;18.912;2022-09-01T08:53:25;4.85;;;2.30;;
48191;SDS011;33982;47.430;18.912;2022-09-01T08:56:04;5.35;;;2.05;;
48191;SDS011;33982;47.430;18.912;2022-09-01T08:58:33;4.75;;;1.92;;
48191;SDS011;33982;47.430;18.912;2022-09-01T09:01:06;5.78;;;2.03;;
48191;SDS011;33982;47.430;18.912;2022-09-01T09:06:32;6.05;;;2.20;;
48191;SDS011;33982;47.430;18.912;2022-09-01T09:09:14;5.78;;;2.17;;
48191;SDS011;33982;47.430;18.912;2022-09-01T09:16:58;4.22;;;2.10;;
48191;SDS011;33982;47.430;18.912;2022-09-01T09:19:34;4.80;;;1.90;;
48191;SDS011;33982;47.430;18.912;2022-09-01T09:22:08;4.25;;;2.00;;
48191;SDS011;33982;47.430;18.912;2022-09-01T09:27:29;4.57;;;2.00;;
48191;SDS011;33982;47.430;18.912;2022-09-01T09:30:12;3.95;;;1.98;;
48191;SDS011;33982;47.430;18.912;2022-09-01T09:32:55;5.62;;;2.08;;
48191;SDS011;33982;47.430;18.912;2022-09-01T09:35:50;3.95;;;2.00;;
48191;SDS011;33982;47.430;18.912;2022-09-01T09:38:21;5.30;;;2.00;;
48191;SDS011;33982;47.430;18.912;2022-09-01T09:43:57;3.83;;;2.05;;
48191;SDS011;33982;47.430;18.912;2022-09-01T09:46:42;4.50;;;2.20;;
48191;SDS011;33982;47.430;18.912;2022-09-01T09:49:14;5.18;;;2.22;;
48191;SDS011;33982;47.430;18.912;2022-09-01T09:54:36;4.97;;;2.00;;
48191;SDS011;33982;47.430;18.912;2022-09-01T09:59:40;4.43;;;2.00;;
48191;SDS011;33982;47.430;18.912;2022-09-01T10:02:32;4.77;;;2.13;;
48191;SDS011;33982;47.430;18.912;2022-09-01T10:07:51;5.57;;;2.20;;
48191;SDS011;33982;47.430;18.912;2022-09-01T10:13:22;5.20;;;2.00;;
48191;SDS011;33982;47.430;18.912;2022-09-01T10:16:04;5.23;;;2.10;;
48191;SDS011;33982;47.430;18.912;2022-09-01T10:18:40;5.03;;;2.05;;
48191;SDS011;33982;47.430;18.912;2022-09-01T10:21:28;4.07;;;1.80;;
48191;SDS011;33982;47.430;18.912;2022-09-01T10:24:02;5.40;;;1.90;;
48191;SDS011;33982;47.430;18.912;2022-09-01T10:26:52;5.65;;;1.90;;
48191;SDS011;33982;47.430;18.912;2022-09-01T10:29:26;5.60;;;2.20;;
48191;SDS011;33982;47.430;18.912;2022-09-01T10:32:05;5.20;;;2.07;;
48191;SDS011;33982;47.430;18.912;2022-09-01T10:34:54;4.37;;;1.83;;
48191;SDS011;33982;47.430;18.912;2022-09-01T10:37:29;3.80;;;1.70;;
48191;SDS011;33982;47.430;18.912;2022-09-01T10:42:58;4.50;;;1.67;;
48191;SDS011;33982;47.430;18.912;2022-09-01T10:45:50;4.43;;;1.70;;
48191;SDS011;33982;47.430;18.912;2022-09-01T10:48:32;3.87;;;1.70;;
48191;SDS011;33982;47.430;18.912;2022-09-01T10:54:24;3.95;;;1.70;;
48191;SDS011;33982;47.430;18.912;2022-09-01T10:59:45;5.32;;;2.00;;
48191;SDS011;33982;47.430;18.912;2022-09-01T11:02:23;4.25;;;1.70;;
48191;SDS011;33982;47.430;18.912;2022-09-01T11:07:31;2.80;;;1.52;;
48191;SDS011;33982;47.430;18.912;2022-09-01T11:10:31;3.58;;;1.50;;
48191;SDS011;33982;47.430;18.912;2022-09-01T11:16:27;5.22;;;1.50;;
48191;SDS011;33982;47.430;18.912;2022-09-01T11:28:10;4.37;;;1.60;;
48191;SDS011;33982;47.430;18.912;2022-09-01T11:30:19;8.80;;;1.70;;
48191;SDS011;33982;47.430;18.912;2022-09-01T11:32:56;4.55;;;1.50;;
48191;SDS011;33982;47.430;18.912;2022-09-01T11:35:27;3.97;;;1.60;;
48191;SDS011;33982;47.430;18.912;2022-09-01T11:38:07;2.63;;;1.37;;
48191;SDS011;33982;47.430;18.912;2022-09-01T11:40:59;4.60;;;1.52;;
48191;SDS011;33982;47.430;18.912;2022-09-01T11:43:28;2.92;;;1.50;;
48191;SDS011;33982;47.430;18.912;2022-09-01T11:46:07;3.53;;;1.40;;
48191;SDS011;33982;47.430;18.912;2022-09-01T11:48:45;2.90;;;1.40;;
48191;SDS011;33982;47.430;18.912;2022-09-01T11:51:18;2.83;;;1.50;;
48191;SDS011;33982;47.430;18.912;2022-09-01T11:53:48;3.03;;;1.40;;
48191;SDS011;33982;47.430;18.912;2022-09-01T11:56:19;2.87;;;1.50;;
48191;SDS011;33982;47.430;18.912;2022-09-01T11:59:00;2.80;;;1.70;;
48191;SDS011;33982;47.430;18.912;2022-09-01T12:01:31;4.40;;;1.60;;
48191;SDS011;33982;47.430;18.912;2022-09-01T12:04:22;3.35;;;1.50;;
48191;SDS011;33982;47.430;18.912;2022-09-01T12:06:59;5.18;;;1.50;;
48191;SDS011;33982;47.430;18.912;2022-09-01T12:09:47;5.87;;;1.50;;
48191;SDS011;33982;47.430;18.912;2022-09-01T12:15:24;2.83;;;1.42;;
48191;SDS011;33982;47.430;18.912;2022-09-01T12:18:03;2.95;;;1.33;;
48191;SDS011;33982;47.430;18.912;2022-09-01T12:20:37;3.55;;;1.40;;
48191;SDS011;33982;47.430;18.912;2022-09-01T12:23:39;3.12;;;1.50;;
48191;SDS011;33982;47.430;18.912;2022-09-01T12:26:23;2.58;;;1.50;;
48191;SDS011;33982;47.430;18.912;2022-09-01T12:28:52;4.35;;;1.40;;
48191;SDS011;33982;47.430;18.912;2022-09-01T12:31:22;2.47;;;1.40;;
48191;SDS011;33982;47.430;18.912;2022-09-01T12:33:52;4.05;;;1.40;;
48191;SDS011;33982;47.430;18.912;2022-09-01T12:38:55;5.57;;;1.60;;
48191;SDS011;33982;47.430;18.912;2022-09-01T12:45:09;4.82;;;1.40;;
48191;SDS011;33982;47.430;18.912;2022-09-01T12:52:57;2.60;;;1.40;;
48191;SDS011;33982;47.430;18.912;2022-09-01T12:55:32;3.25;;;1.30;;
48191;SDS011;33982;47.430;18.912;2022-09-01T12:58:22;3.87;;;1.40;;
48191;SDS011;33982;47.430;18.912;2022-09-01T13:01:00;2.78;;;1.50;;
48191;SDS011;33982;47.430;18.912;2022-09-01T13:03:30;4.57;;;1.58;;
48191;SDS011;33982;47.430;18.912;2022-09-01T13:06:01;4.82;;;1.70;;
48191;SDS011;33982;47.430;18.912;2022-09-01T13:08:31;2.80;;;1.30;;
48191;SDS011;33982;47.430;18.912;2022-09-01T13:13:37;3.45;;;1.40;;
48191;SDS011;33982;47.430;18.912;2022-09-01T13:16:08;3.28;;;1.40;;
48191;SDS011;33982;47.430;18.912;2022-09-01T13:18:41;3.40;;;1.30;;
48191;SDS011;33982;47.430;18.912;2022-09-01T13:21:30;4.73;;;1.60;;
48191;SDS011;33982;47.430;18.912;2022-09-01T13:24:02;4.50;;;1.40;;
48191;SDS011;33982;47.430;18.912;2022-09-01T13:26:32;3.42;;;1.30;;
48191;SDS011;33982;47.430;18.912;2022-09-01T13:29:02;3.00;;;1.43;;
48191;SDS011;33982;47.430;18.912;2022-09-01T13:31:30;3.78;;;1.60;;
48191;SDS011;33982;47.430;18.912;2022-09-01T13:34:00;3.22;;;1.30;;
48191;SDS011;33982;47.430;18.912;2022-09-01T13:36:50;4.00;;;1.40;;
48191;SDS011;33982;47.430;18.912;2022-09-01T13:39:21;2.53;;;1.40;;
48191;SDS011;33982;47.430;18.912;2022-09-01T13:41:49;3.15;;;1.37;;
48191;SDS011;33982;47.430;18.912;2022-09-01T13:44:17;2.65;;;1.35;;
48191;SDS011;33982;47.430;18.912;2022-09-01T13:46:45;2.55;;;1.33;;
48191;SDS011;33982;47.430;18.912;2022-09-01T13:49:33;2.05;;;1.20;;
48191;SDS011;33982;47.430;18.912;2022-09-01T13:52:09;4.87;;;1.40;;
48191;SDS011;33982;47.430;18.912;2022-09-01T13:54:37;2.65;;;1.30;;
48191;SDS011;33982;47.430;18.912;2022-09-01T13:57:13;3.28;;;1.40;;
48191;SDS011;33982;47.430;18.912;2022-09-01T13:59:44;2.83;;;1.27;;
48191;SDS011;33982;47.430;18.912;2022-09-01T14:02:11;2.67;;;1.30;;
48191;SDS011;33982;47.430;18.912;2022-09-01T14:04:39;2.60;;;1.30;;
48191;SDS011;33982;47.430;18.912;2022-09-01T14:07:08;3.20;;;1.30;;
48191;SDS011;33982;47.430;18.912;2022-09-01T14:09:36;3.90;;;1.30;;
48191;SDS011;33982;47.430;18.912;2022-09-01T14:12:06;3.30;;;1.30;;
48191;SDS011;33982;47.430;18.912;2022-09-01T14:14:34;2.47;;;1.20;;
48191;SDS011;33982;47.430;18.912;2022-09-01T14:17:22;2.10;;;1.27;;
48191;SDS011;33982;47.430;18.912;2022-09-01T14:19:49;3.00;;;1.40;;
48191;SDS011;33982;47.430;18.912;2022-09-01T14:22:21;3.55;;;1.45;;
48191;SDS011;33982;47.430;18.912;2022-09-01T14:24:49;4.10;;;1.40;;
48191;SDS011;33982;47.430;18.912;2022-09-01T14:27:18;2.62;;;1.30;;
48191;SDS011;33982;47.430;18.912;2022-09-01T14:29:52;2.47;;;1.20;;
48191;SDS011;33982;47.430;18.912;2022-09-01T14:32:22;3.67;;;1.47;;
48191;SDS011;33982;47.430;18.912;2022-09-01T14:34:54;2.90;;;1.37;;
48191;SDS011;33982;47.430;18.912;2022-09-01T14:37:25;2.50;;;1.17;;
48191;SDS011;33982;47.430;18.912;2022-09-01T14:39:54;2.60;;;1.23;;
48191;SDS011;33982;47.430;18.912;2022-09-01T14:42:24;2.10;;;1.20;;
48191;SDS011;33982;47.430;18.912;2022-09-01T14:44:55;3.20;;;1.33;;
48191;SDS011;33982;47.430;18.912;2022-09-01T14:47:27;1.80;;;1.17;;
48191;SDS011;33982;47.430;18.912;2022-09-01T14:49:56;1.80;;;1.20;;
48191;SDS011;33982;47.430;18.912;2022-09-01T14:52:29;2.58;;;1.15;;
48191;SDS011;33982;47.430;18.912;2022-09-01T14:55:00;3.27;;;1.20;;
48191;SDS011;33982;47.430;18.912;2022-09-01T14:57:38;3.25;;;1.30;;
48191;SDS011;33982;47.430;18.912;2022-09-01T15:00:10;3.25;;;1.20;;
48191;SDS011;33982;47.430;18.912;2022-09-01T15:02:47;2.37;;;1.17;;
48191;SDS011;33982;47.430;18.912;2022-09-01T15:05:16;2.05;;;1.25;;
48191;SDS011;33982;47.430;18.912;2022-09-01T15:07:48;3.17;;;1.17;;
48191;SDS011;33982;47.430;18.912;2022-09-01T15:10:18;1.92;;;1.20;;
48191;SDS011;33982;47.430;18.912;2022-09-01T15:12:55;2.40;;;1.37;;
48191;SDS011;33982;47.430;18.912;2022-09-01T15:15:27;2.42;;;1.40;;
48191;SDS011;33982;47.430;18.912;2022-09-01T15:17:59;3.72;;;1.40;;
48191;SDS011;33982;47.430;18.912;2022-09-01T15:20:28;3.62;;;1.30;;
48191;SDS011;33982;47.430;18.912;2022-09-01T15:23:17;3.87;;;1.30;;
48191;SDS011;33982;47.430;18.912;2022-09-01T15:25:50;2.83;;;1.30;;
48191;SDS011;33982;47.430;18.912;2022-09-01T15:28:21;4.53;;;1.35;;
48191;SDS011;33982;47.430;18.912;2022-09-01T15:30:49;2.47;;;1.20;;
48191;SDS011;33982;47.430;18.912;2022-09-01T15:33:21;3.80;;;1.50;;
48191;SDS011;33982;47.430;18.912;2022-09-01T15:35:55;3.10;;;1.30;;
48191;SDS011;33982;47.430;18.912;2022-09-01T15:38:27;3.37;;;1.40;;
48191;SDS011;33982;47.430;18.912;2022-09-01T15:40:57;2.47;;;1.17;;
48191;SDS011;33982;47.430;18.912;2022-09-01T15:43:27;3.42;;;1.30;;
48191;SDS011;33982;47.430;18.912;2022-09-01T15:46:02;3.40;;;1.35;;
48191;SDS011;33982;47.430;18.912;2022-09-01T15:48:34;2.67;;;1.37;;
48191;SDS011;33982;47.430;18.912;2022-09-01T15:53:51;5.97;;;1.50;;
48191;SDS011;33982;47.430;18.912;2022-09-01T15:56:23;2.95;;;1.50;;
48191;SDS011;33982;47.430;18.912;2022-09-01T15:58:53;2.78;;;1.42;;
48191;SDS011;33982;47.430;18.912;2022-09-01T16:01:31;3.37;;;1.40;;
48191;SDS011;33982;47.430;18.912;2022-09-01T16:04:05;2.83;;;1.20;;
48191;SDS011;33982;47.430;18.912;2022-09-01T16:06:53;2.55;;;1.30;;
48191;SDS011;33982;47.430;18.912;2022-09-01T16:09:27;3.50;;;1.60;;
48191;SDS011;33982;47.430;18.912;2022-09-01T16:12:13;5.47;;;1.45;;
48191;SDS011;33982;47.430;18.912;2022-09-01T16:14:42;2.67;;;1.25;;
48191;SDS011;33982;47.430;18.912;2022-09-01T16:17:41;3.80;;;1.50;;
48191;SDS011;33982;47.430;18.912;2022-09-01T16:20:24;3.78;;;1.30;;
48191;SDS011;33982;47.430;18.912;2022-09-01T16:23:11;3.70;;;1.43;;
48191;SDS011;33982;47.430;18.912;2022-09-01T16:28:37;7.72;;;1.55;;
48191;SDS011;33982;47.430;18.912;2022-09-01T16:31:13;4.50;;;1.70;;
48191;SDS011;33982;47.430;18.912;2022-09-01T16:33:45;5.45;;;1.40;;
48191;SDS011;33982;47.430;18.912;2022-09-01T16:39:14;4.30;;;1.40;;